^^
Saratoga-Weather Station Historical Data
 
Daily Summary for June 05, 2020 Units:  English    Metric   Both
Daily Weekly Monthly Yearly Custom
  Current: High: Low: Average:
Temperature: 80.3 °F 80.8 °F 67 °F 71.3 °F
Dew Point: 72.6 °F 73.2 °F 63.7 °F 67.3 °F
Humidity: 77.6% 95% 75% 88%
Wind Speed: 2.7mph 4mph 0mph 1.4mph
Wind Gust: 5mph 12mph - -
WindSouth - - South
Pressure: 29.75 in 29.83 in 29.75 in -
Precipitation: 0.06 in      
Historical Graphs
 
 
Tabular Data for June 05, 2020
Time Temperature Dew Point Pressure Wind Wind Speed Wind Gust Humidity Rainfall Rate (Hourly) solar
00:04 72.5 °F 64.1 °F 29.80 in SE 1.7 mph 3.5 mph 75% 0.00 in 0 W/m2
00:09 72.4 °F 64 °F 29.80 in SSE 2 mph 4 mph 75% 0.00 in 0 W/m2
00:14 72.2 °F 63.8 °F 29.79 in SSE 2 mph 5 mph 75% 0.00 in 0 W/m2
00:19 72.2 °F 63.8 °F 29.79 in South 1.9 mph 5 mph 75% 0.00 in 0 W/m2
00:24 72.1 °F 64.1 °F 29.79 in SSW 1.2 mph 2.3 mph 75.9% 0.00 in 0 W/m2
00:29 72.1 °F 64 °F 29.79 in SSW 0.7 mph 2.3 mph 75.9% 0.00 in 0 W/m2
00:34 72 °F 64 °F 29.79 in SSW 0.5 mph 1.2 mph 76% 0.00 in 0 W/m2
00:39 71.9 °F 63.9 °F 29.80 in SSW 0.7 mph 2.3 mph 76% 0.00 in 0 W/m2
00:44 71.8 °F 63.8 °F 29.80 in Calm   1.2 mph 76% 0.00 in 0 W/m2
00:49 71.7 °F 63.7 °F 29.80 in SSW 0.3 mph 1.2 mph 76% 0.00 in 0 W/m2
00:54 71.6 °F 64 °F 29.80 in SSW 1 mph 2.3 mph 76.9% 0.00 in 0 W/m2
00:59 71.5 °F 63.9 °F 29.80 in SSW 1.1 mph 2.3 mph 77% 0.00 in 0 W/m2
01:04 71.5 °F 63.9 °F 29.80 in SSW 1.1 mph 2.3 mph 77% 0.00 in 0 W/m2
01:09 71.4 °F 63.8 °F 29.80 in SSW 0.9 mph 2.3 mph 77% 0.00 in 0 W/m2
01:14 71.3 °F 63.7 °F 29.80 in SSW 0.8 mph 2.3 mph 77% 0.00 in 0 W/m2
01:19 71.2 °F 64 °F 29.80 in South 1 mph 2.3 mph 78% 0.00 in 0 W/m2
01:24 71.1 °F 63.9 °F 29.79 in South 0.7 mph 2.3 mph 78% 0.00 in 0 W/m2
01:29 71 °F 63.8 °F 29.79 in SSW 0.4 mph 2.3 mph 78% 0.00 in 0 W/m2
01:34 71 °F 63.8 °F 29.79 in SSW 0.7 mph 2.3 mph 78% 0.00 in 0 W/m2
01:39 70.9 °F 63.9 °F 29.80 in SSW 0.9 mph 2.3 mph 78.3% 0.00 in 0 W/m2
01:44 70.8 °F 63.7 °F 29.80 in SSW 0.8 mph 2.3 mph 78.2% 0.00 in 0 W/m2
01:49 70.8 °F 64 °F 29.79 in SSW 0.9 mph 2.3 mph 79% 0.00 in 0 W/m2
01:54 70.7 °F 63.9 °F 29.79 in SSW 0.8 mph 2.3 mph 79% 0.00 in 0 W/m2
01:59 70.6 °F 63.8 °F 29.79 in SSW 1 mph 2.3 mph 79% 0.00 in 0 W/m2
02:04 70.6 °F 63.9 °F 29.79 in SSW 0.9 mph 2.3 mph 79.4% 0.00 in 0 W/m2
02:09 70.5 °F 64 °F 29.78 in SSW 1.2 mph 3.5 mph 80% 0.00 in 0 W/m2
02:14 70.4 °F 63.9 °F 29.79 in SSW 1.1 mph 2.3 mph 80% 0.00 in 0 W/m2
02:19 70.4 °F 63.9 °F 29.79 in South 1.4 mph 3 mph 80% 0.00 in 0 W/m2
02:24 70.3 °F 63.8 °F 29.80 in South 1.5 mph 5 mph 80% 0.00 in 0 W/m2
02:29 70.3 °F 63.9 °F 29.83 in SSW 2.9 mph 6 mph 80.3% 0.00 in 0 W/m2
02:34 70.2 °F 64.1 °F 29.82 in South 3.8 mph 12 mph 81% 0.00 in 0 W/m2
02:39 70.1 °F 64 °F 29.82 in South 2.4 mph 7 mph 81% 0.00 in 0 W/m2
02:44 70.1 °F 64 °F 29.81 in South 1.7 mph 7 mph 81% 0.00 in 0 W/m2
02:49 70.1 °F 64.2 °F 29.81 in South 2 mph 6 mph 81.5% 0.00 in 0 W/m2
02:54 70.1 °F 64.4 °F 29.80 in SSW 1 mph 3.5 mph 82.3% 0.00 in 0 W/m2
02:59 70 °F 64.6 °F 29.80 in South 1.6 mph 4 mph 83% 0.00 in 0 W/m2
03:04 69.9 °F 64.6 °F 29.80 in South 0.8 mph 2.3 mph 83.2% 0.00 in 0 W/m2
03:09 69.8 °F 64.7 °F 29.80 in South 0.5 mph 2.3 mph 84% 0.00 in 0 W/m2
03:14 69.7 °F 64.9 °F 29.80 in South 1 mph 3.5 mph 84.7% 0.00 in 0 W/m2
03:19 69.6 °F 65 °F 29.80 in South 0.8 mph 2.3 mph 85.2% 0.01 in 0 W/m2
03:24 69.5 °F 65.1 °F 29.80 in South 0.6 mph 2.3 mph 86% 0.02 in 0 W/m2
03:29 69.3 °F 65.1 °F 29.80 in South 0.4 mph 1.2 mph 86.5% 0.02 in 0 W/m2
03:34 69.2 °F 65.2 °F 29.79 in South 0.2 mph 1.2 mph 87% 0.02 in 0 W/m2
03:39 69 °F 65.1 °F 29.79 in South 0.1 mph 1.2 mph 87.4% 0.02 in 0 W/m2
03:44 68.9 °F 65.2 °F 29.80 in South 0.2 mph 1.2 mph 88% 0.02 in 0 W/m2
03:49 68.6 °F 64.9 °F 29.79 in South 0.3 mph 1.2 mph 88% 0.02 in 0 W/m2
03:54 68.5 °F 65 °F 29.80 in Calm     88.9% 0.02 in 0 W/m2
03:59 68.3 °F 65.1 °F 29.80 in Calm     89.4% 0.02 in 0 W/m2
04:04 68.2 °F 65.2 °F 29.80 in Calm     90% 0.02 in 0 W/m2
04:09 68.1 °F 65.1 °F 29.79 in Calm     90% 0.02 in 0 W/m2
04:14 68 °F 65 °F 29.79 in Calm     90% 0.02 in 0 W/m2
04:19 67.9 °F 65.2 °F 29.79 in Calm     91% 0.02 in 0 W/m2
04:24 67.8 °F 65.1 °F 29.79 in Calm     91% 0.01 in 0 W/m2
04:29 67.7 °F 65 °F 29.79 in Calm     91% 0.00 in 0 W/m2
04:34 67.7 °F 65.1 °F 29.79 in Calm     91.4% 0.00 in 0 W/m2
04:39 67.7 °F 65.2 °F 29.79 in Calm     91.9% 0.00 in 0 W/m2
04:44 67.6 °F 65.2 °F 29.79 in Calm     92% 0.00 in 0 W/m2
04:49 67.6 °F 65.2 °F 29.79 in Calm     92% 0.00 in 0 W/m2
04:54 67.5 °F 65.1 °F 29.79 in Calm     92% 0.00 in 0 W/m2
04:59 67.5 °F 65.1 °F 29.79 in South 0.2 mph 1.2 mph 92% 0.00 in 0 W/m2
05:04 67.4 °F 65.2 °F 29.78 in Calm   1.2 mph 92.7% 0.00 in 0 W/m2
05:09 67.4 °F 65.3 °F 29.79 in Calm   1 mph 93% 0.00 in 0 W/m2
05:14 67.3 °F 65.2 °F 29.79 in Calm   1.2 mph 93% 0.00 in 0 W/m2
05:19 67.3 °F 65.2 °F 29.79 in Calm     93% 0.00 in 1 W/m2
05:24 67.3 °F 65.2 °F 29.79 in South 0.1 mph 1.2 mph 93% 0.00 in 1 W/m2
05:29 67.3 °F 65.2 °F 29.79 in Calm     93% 0.00 in 2 W/m2
05:34 67.3 °F 65.2 °F 29.79 in South 0.2 mph 2.3 mph 93% 0.00 in 3 W/m2
05:39 67.2 °F 65.1 °F 29.79 in Calm     93% 0.00 in 4 W/m2
05:44 67.2 °F 65.1 °F 29.79 in South 0.2 mph 1.2 mph 93% 0.00 in 4 W/m2
05:49 67.2 °F 65.1 °F 29.79 in Calm   1.2 mph 93% 0.00 in 5 W/m2
05:54 67.1 °F 65 °F 29.78 in Calm     93% 0.00 in 7 W/m2
05:59 67.1 °F 65 °F 29.78 in Calm     93% 0.00 in 9 W/m2
06:04 67.1 °F 65 °F 29.78 in Calm     93% 0.00 in 10 W/m2
06:09 67.1 °F 65 °F 29.78 in Calm     93% 0.00 in 11 W/m2
06:14 67.1 °F 65 °F 29.77 in Calm     93.2% 0.00 in 15 W/m2
06:19 67 °F 65.2 °F 29.77 in Calm   1.2 mph 94% 0.00 in 18 W/m2
06:24 67 °F 65.2 °F 29.77 in Calm     94% 0.01 in 20 W/m2
06:29 67 °F 65.2 °F 29.77 in South 0.3 mph 1.2 mph 94% 0.01 in 22 W/m2
06:34 67 °F 65.2 °F 29.77 in Calm     94% 0.01 in 31 W/m2
06:39 67 °F 65.2 °F 29.77 in Calm     94% 0.01 in 34 W/m2
06:44 67.1 °F 65.3 °F 29.76 in South 0.4 mph 2.3 mph 94% 0.01 in 35 W/m2
06:49 67.1 °F 65.3 °F 29.77 in Calm     94% 0.01 in 39 W/m2
06:54 67.2 °F 65.4 °F 29.77 in Calm     94% 0.01 in 42 W/m2
06:59 67.3 °F 65.5 °F 29.76 in Calm     94% 0.01 in 44 W/m2
07:04 67.3 °F 65.5 °F 29.76 in South 0.1 mph 2 mph 94% 0.01 in 44 W/m2
07:09 67.3 °F 65.5 °F 29.75 in South 1.3 mph 2.3 mph 94% 0.01 in 41 W/m2
07:14 67.3 °F 65.5 °F 29.76 in South 0.1 mph 2.3 mph 94% 0.01 in 51 W/m2
07:19 67.3 °F 65.5 °F 29.76 in Calm     94% 0.01 in 51 W/m2
07:24 67.4 °F 65.6 °F 29.77 in Calm     94% 0.01 in 62 W/m2
07:29 67.4 °F 65.7 °F 29.77 in South 0.1 mph 1.2 mph 94.2% 0.00 in 76 W/m2
07:34 67.5 °F 66 °F 29.78 in South 0.6 mph 2 mph 95% 0.00 in 76 W/m2
07:39 67.6 °F 66.1 °F 29.79 in SSE 1.5 mph 3 mph 95% 0.00 in 71 W/m2
07:44 67.7 °F 66.2 °F 29.79 in South 1.9 mph 4 mph 95% 0.00 in 71 W/m2
07:49 67.7 °F 66.2 °F 29.79 in SSE 1.7 mph 5 mph 95% 0.00 in 74 W/m2
07:54 67.7 °F 66.2 °F 29.79 in SSE 1.9 mph 4 mph 95% 0.00 in 75 W/m2
07:59 67.7 °F 66.2 °F 29.80 in SSE 0.9 mph 3.5 mph 95% 0.00 in 78 W/m2
08:04 67.8 °F 66.3 °F 29.80 in South 1.2 mph 3.5 mph 95% 0.00 in 80 W/m2
08:09 67.8 °F 66.3 °F 29.80 in South 1 mph 2.3 mph 95% 0.00 in 75 W/m2
08:14 67.9 °F 66.4 °F 29.80 in South 1 mph 3.5 mph 95% 0.00 in 75 W/m2
08:19 67.9 °F 66.4 °F 29.80 in South 0.6 mph 2.3 mph 95% 0.00 in 60 W/m2
08:24 67.9 °F 66.4 °F 29.80 in South 0.6 mph 2.3 mph 95% 0.01 in 52 W/m2
08:29 67.9 °F 66.4 °F 29.80 in South 0.9 mph 2.3 mph 95% 0.01 in 70 W/m2
08:34 68 °F 66.5 °F 29.80 in South 1.1 mph 2.3 mph 95% 0.01 in 94 W/m2
08:39 68 °F 66.5 °F 29.81 in South 1.2 mph 4 mph 95% 0.01 in 100 W/m2
08:44 68 °F 66.5 °F 29.82 in South 2.1 mph 4 mph 95% 0.02 in 101 W/m2
08:49 68 °F 66.5 °F 29.82 in SW 2.2 mph 6 mph 95% 0.02 in 45 W/m2
08:54 68 °F 66.5 °F 29.82 in South 2.2 mph 7 mph 95% 0.02 in 77 W/m2
08:59 68 °F 66.5 °F 29.82 in SSW 2.9 mph 6 mph 95% 0.02 in 95 W/m2
09:04 68 °F 66.5 °F 29.82 in SW 2.8 mph 8.1 mph 95% 0.02 in 116 W/m2
09:09 68 °F 66.5 °F 29.82 in SSE 0.8 mph 4 mph 95% 0.02 in 114 W/m2
09:14 68.1 °F 66.6 °F 29.83 in SSW 1.3 mph 4 mph 95% 0.02 in 81 W/m2
09:19 68.1 °F 66.6 °F 29.82 in SSW 2.4 mph 5 mph 95% 0.03 in 82 W/m2
09:24 68.1 °F 66.6 °F 29.82 in South 1.8 mph 6 mph 95% 0.03 in 155 W/m2
09:29 68.2 °F 66.7 °F 29.82 in South 1.2 mph 3.5 mph 95% 0.02 in 158 W/m2
09:34 68.3 °F 66.8 °F 29.82 in SSE 2.1 mph 4 mph 95% 0.02 in 151 W/m2
09:39 68.4 °F 66.9 °F 29.82 in SSE 2 mph 4 mph 95% 0.02 in 155 W/m2
09:44 68.4 °F 66.9 °F 29.82 in SSE 1.8 mph 4 mph 95% 0.02 in 160 W/m2
09:49 68.5 °F 67 °F 29.82 in SSE 1.8 mph 4 mph 95% 0.01 in 182 W/m2
09:54 68.5 °F 67 °F 29.82 in SSE 1.8 mph 5 mph 95% 0.01 in 208 W/m2
09:59 68.6 °F 67.1 °F 29.82 in SSE 1.6 mph 5 mph 95% 0.01 in 192 W/m2
10:04 68.6 °F 67.1 °F 29.82 in SE 2.2 mph 5 mph 95% 0.01 in 149 W/m2
10:09 68.6 °F 67.1 °F 29.82 in SE 1.8 mph 4 mph 95% 0.01 in 153 W/m2
10:14 68.6 °F 67.1 °F 29.83 in SSW 1.5 mph 6 mph 95% 0.01 in 166 W/m2
10:19 68.7 °F 67.2 °F 29.83 in SSW 1.6 mph 5.8 mph 95% 0.01 in 119 W/m2
10:24 68.7 °F 67.2 °F 29.83 in South 1.9 mph 7 mph 95% 0.00 in 168 W/m2
10:29 68.7 °F 67.2 °F 29.83 in South 2.4 mph 5 mph 95% 0.00 in 177 W/m2
10:34 68.7 °F 67.2 °F 29.82 in South 2.3 mph 5 mph 95% 0.00 in 149 W/m2
10:39 68.6 °F 67.1 °F 29.82 in South 1.8 mph 6 mph 95% 0.00 in 151 W/m2
10:44 68.6 °F 67.1 °F 29.82 in SSE 2.4 mph 6 mph 95% 0.00 in 144 W/m2
10:49 68.6 °F 67.1 °F 29.82 in South 1.8 mph 5 mph 95% 0.00 in 144 W/m2
10:54 68.6 °F 67.1 °F 29.82 in South 1.5 mph 6 mph 95% 0.00 in 175 W/m2
10:59 68.6 °F 67.1 °F 29.82 in SSW 1.3 mph 4 mph 95% 0.00 in 184 W/m2
11:04 68.8 °F 67.3 °F 29.82 in South 2 mph 5 mph 95% 0.00 in 188 W/m2
11:09 68.9 °F 67.4 °F 29.82 in SSE 1.8 mph 4 mph 95% 0.00 in 178 W/m2
11:14 69 °F 67.5 °F 29.82 in South 1.9 mph 3.5 mph 95% 0.00 in 202 W/m2
11:19 69 °F 67.5 °F 29.81 in SE 1.6 mph 4 mph 95% 0.00 in 275 W/m2
11:24 69.2 °F 67.7 °F 29.81 in South 2.1 mph 5 mph 95% 0.00 in 273 W/m2
11:29 69.4 °F 67.8 °F 29.81 in SSW 1.7 mph 4 mph 94.6% 0.00 in 257 W/m2
11:34 69.5 °F 68 °F 29.81 in SSW 1.5 mph 3.5 mph 95% 0.00 in 226 W/m2
11:39 69.6 °F 68 °F 29.81 in South 1.5 mph 4 mph 94.4% 0.00 in 167 W/m2
11:44 69.7 °F 67.9 °F 29.81 in SSE 2 mph 4 mph 94% 0.00 in 154 W/m2
11:49 69.7 °F 67.9 °F 29.82 in SW 2.2 mph 6 mph 94% 0.00 in 168 W/m2
11:54 69.9 °F 68.1 °F 29.81 in SSW 1.7 mph 5 mph 94% 0.00 in 317 W/m2
11:59 70 °F 68.2 °F 29.81 in SSE 1.9 mph 4 mph 94% 0.00 in 326 W/m2
12:04 70.2 °F 68.4 °F 29.81 in South 2.4 mph 4 mph 94% 0.00 in 404 W/m2
12:09 70.5 °F 68.5 °F 29.82 in South 1.1 mph 4 mph 93.4% 0.00 in 404 W/m2
12:14 70.7 °F 68.6 °F 29.81 in SW 2 mph 6 mph 93% 0.00 in 301 W/m2
12:19 70.9 °F 68.8 °F 29.82 in SW 2.5 mph 6 mph 93% 0.00 in 288 W/m2
12:24 71.1 °F 68.9 °F 29.82 in South 1.9 mph 5 mph 92.6% 0.00 in 264 W/m2
12:29 71.2 °F 68.8 °F 29.82 in SSW 1.9 mph 8.1 mph 92% 0.00 in 216 W/m2
12:34 71.4 °F 69 °F 29.82 in SSE 1.8 mph 4 mph 92% 0.00 in 190 W/m2
12:39 71.5 °F 68.9 °F 29.81 in South 1.4 mph 3.5 mph 91.5% 0.00 in 168 W/m2
12:44 71.6 °F 68.8 °F 29.82 in SSW 0.9 mph 2.3 mph 91% 0.00 in 227 W/m2
12:49 71.8 °F 69 °F 29.81 in SSW 0.5 mph 1.2 mph 91% 0.00 in 280 W/m2
12:54 72 °F 69.2 °F 29.81 in SSW 0.8 mph 3 mph 91% 0.00 in 473 W/m2
12:59 72.3 °F 69.5 °F 29.81 in South 2.2 mph 6 mph 91% 0.00 in 538 W/m2
13:04 72.6 °F 69.8 °F 29.80 in SE 1.8 mph 4.6 mph 91% 0.00 in 520 W/m2
13:09 73 °F 69.9 °F 29.80 in SSW 1.8 mph 4 mph 90.1% 0.00 in 309 W/m2
13:14 73.3 °F 70.1 °F 29.80 in WSW 2 mph 7 mph 89.8% 0.00 in 309 W/m2
13:19 73.6 °F 70.2 °F 29.80 in SSW 1.7 mph 5 mph 89% 0.00 in 477 W/m2
13:24 73.9 °F 70.1 °F 29.80 in SW 2.1 mph 6 mph 88.1% 0.00 in 392 W/m2
13:29 74.2 °F 70.4 °F 29.80 in WSW 2.6 mph 8.1 mph 87.8% 0.00 in 332 W/m2
13:34 74.5 °F 70.2 °F 29.79 in SSW 1.5 mph 3.5 mph 86.4% 0.00 in 359 W/m2
13:39 74.8 °F 70.6 °F 29.79 in WSW 0.9 mph 4 mph 86.7% 0.00 in 616 W/m2
13:44 75.1 °F 70.8 °F 29.79 in South 1.2 mph 3.5 mph 86.3% 0.00 in 616 W/m2
13:49 75.4 °F 70.9 °F 29.79 in SSE 1.7 mph 4 mph 85.8% 0.00 in 566 W/m2
13:54 75.7 °F 70.9 °F 29.79 in SSW 1.6 mph 4 mph 85% 0.00 in 698 W/m2
13:59 76 °F 71 °F 29.79 in SSW 1.6 mph 4 mph 84.5% 0.00 in 491 W/m2
14:04 76.3 °F 71.5 °F 29.79 in SSW 1.5 mph 3.5 mph 84.9% 0.00 in 667 W/m2
14:09 76.6 °F 71.6 °F 29.79 in South 1.3 mph 3.5 mph 84.4% 0.00 in 440 W/m2
14:14 77 °F 71.8 °F 29.79 in SSW 1.8 mph 4 mph 84% 0.00 in 763 W/m2
14:19 77.3 °F 71.7 °F 29.79 in SE 1.7 mph 3.5 mph 83% 0.00 in 530 W/m2
14:24 77.6 °F 71.9 °F 29.79 in SSE 1.5 mph 4 mph 82.8% 0.00 in 585 W/m2
14:29 77.8 °F 71.9 °F 29.79 in South 1.7 mph 4 mph 82% 0.00 in 385 W/m2
14:34 78 °F 71.8 °F 29.78 in SSE 2 mph 4 mph 81.4% 0.00 in 579 W/m2
14:39 78.1 °F 72.1 °F 29.78 in South 1.8 mph 5 mph 81.6% 0.00 in 613 W/m2
14:44 78.4 °F 72.1 °F 29.78 in SSW 2.2 mph 5 mph 81% 0.00 in 657 W/m2
14:49 78.7 °F 72.3 °F 29.78 in South 2.1 mph 5 mph 80.8% 0.00 in 645 W/m2
14:54 78.9 °F 72.3 °F 29.78 in South 2.8 mph 8 mph 80.1% 0.00 in 849 W/m2
14:59 79.2 °F 72.5 °F 29.78 in SE 2.6 mph 8.1 mph 80% 0.00 in 924 W/m2
15:04 79.5 °F 72.7 °F 29.78 in SSE 2.4 mph 6 mph 79.8% 0.00 in 821 W/m2
15:09 79.8 °F 72.8 °F 29.78 in SW 3 mph 9 mph 79.2% 0.00 in 611 W/m2
15:14 80.1 °F 72.8 °F 29.78 in SSW 2.8 mph 9.2 mph 78.6% 0.00 in 520 W/m2
15:19 80.1 °F 73 °F 29.78 in SSW 3.3 mph 8.1 mph 78.9% 0.00 in 537 W/m2
15:24 80.1 °F 72.6 °F 29.78 in SSW 3.7 mph 9.2 mph 78.1% 0.00 in 500 W/m2
15:29 80 °F 72.7 °F 29.77 in South 2.7 mph 6.9 mph 78.5% 0.00 in 1105 W/m2
15:34 80.1 °F 73.2 °F 29.77 in SSE 2.7 mph 7 mph 79.4% 0.00 in 1086 W/m2
15:39 80.5 °F 73.1 °F 29.77 in SW 4 mph 9 mph 78.2% 0.00 in 1022 W/m2
15:44 80.8 °F 72.9 °F 29.77 in SSE 3.1 mph 9.2 mph 77.2% 0.00 in 776 W/m2
15:49 80.7 °F 72.7 °F 29.77 in South 2.7 mph 7 mph 76.6% 0.00 in 334 W/m2
15:54 80.4 °F 72.3 °F 29.76 in South 2.5 mph 7 mph 76.5% 0.00 in 392 W/m2
15:59 80.2 °F 72.3 °F 29.76 in South 2.7 mph 7 mph 77.2% 0.00 in 523 W/m2
16:04 80.1 °F 72.1 °F 29.76 in South 2.9 mph 9.2 mph 76.8% 0.00 in 381 W/m2
16:09 79.7 °F 72 °F 29.76 in SSW 3.7 mph 9.2 mph 77.4% 0.00 in 221 W/m2
16:14 79.2 °F 71.8 °F 29.76 in SW 2.6 mph 6 mph 78.3% 0.00 in 220 W/m2
16:19 78.9 °F 72 °F 29.76 in SW 1.9 mph 5 mph 79.4% 0.00 in 277 W/m2
16:24 78.7 °F 71.9 °F 29.76 in SW 2.5 mph 7 mph 79.7% 0.00 in 438 W/m2
16:29 78.6 °F 71.9 °F 29.76 in South 2.7 mph 6.9 mph 80% 0.00 in 652 W/m2
16:34 78.6 °F 72.5 °F 29.76 in SSE 2.7 mph 5 mph 81.5% 0.00 in 834 W/m2
16:39 79.1 °F 73 °F 29.76 in SSE 2.1 mph 5 mph 81.9% 0.00 in 834 W/m2
16:44 79.4 °F 72.8 °F 29.76 in SE 2.3 mph 5 mph 80.1% 0.00 in 808 W/m2
16:49 79.8 °F 72.8 °F 29.76 in SW 2.7 mph 6 mph 79.4% 0.00 in 714 W/m2
16:54 80 °F 72.9 °F 29.76 in SSW 2.9 mph 7 mph 79% 0.00 in 657 W/m2
16:59 80.3 °F 73 °F 29.76 in SSE 2.7 mph 7 mph 78.4% 0.00 in 535 W/m2
17:04 80.4 °F 72.6 °F 29.75 in SE 3.4 mph 9 mph 77.4% 0.00 in 662 W/m2
17:09 80.3 °F 72.4 °F 29.75 in SSE 2.8 mph 9.2 mph 77% 0.00 in 587 W/m2
17:14 80.3 °F 72.6 °F 29.75 in South 2.7 mph 5 mph 77.6% 0.00 in 485 W/m2
Miami Avenue - Newington, Connecticut, USA
Compliments of Weather Underground - 4 mb